Terminal Aerodrome Forecast
Issued by NWS

Home | Current Version | Previous Version | Text Only | Print | Product List | Glossary On
Versions: 1 2 3 4 5 6 7 8 9 10 11 12 13 14 15 16 17 18 19 20 21 22 23
000
FTUS46 KMTR 292300 RRA
TAFSFO
TAF
KSFO 292345Z 3000/3106 28015KT P6SM FEW007 BKN180
     FM300300 29014KT P6SM FEW008 SCT200
     FM300700 29010KT P6SM BKN010 OVC200
     FM301800 30012KT P6SM SCT010 BKN200
     FM302100 29018KT P6SM FEW010 SCT200
     FM310300 29012KT P6SM FEW010 SCT200=

USA.gov is the U.S. government's official web portal to all federal, state and local government web resources and services.